createdAt,value
2018-07-12T00:00:11.895Z,6.75
2018-07-12T00:00:44.473Z,6.65
2018-07-12T00:01:17.045Z,7.30
2018-07-12T00:01:49.572Z,6.55
2018-07-12T00:02:22.671Z,7.37
2018-07-12T00:02:55.323Z,7.28
2018-07-12T00:03:27.892Z,6.30
2018-07-12T00:04:00.473Z,7.37
2018-07-12T00:04:33.012Z,6.65
2018-07-12T00:05:05.587Z,7.78
2018-07-12T00:05:38.805Z,7.45
2018-07-12T00:06:11.548Z,7.15
2018-07-12T00:06:44.187Z,7.55
2018-07-12T00:07:16.755Z,7.25
2018-07-12T00:07:49.834Z,7.40
2018-07-12T00:08:22.391Z,7.85
2018-07-12T00:08:55.072Z,7.45
2018-07-12T00:09:27.618Z,6.40
2018-07-12T00:10:00.191Z,8.18
2018-07-12T00:10:33.056Z,7.85
2018-07-12T00:11:05.631Z,7.10
2018-07-12T00:11:38.179Z,7.30
2018-07-12T00:12:10.754Z,7.58
2018-07-12T00:12:43.323Z,7.30
2018-07-12T00:13:16.096Z,7.35
2018-07-12T00:13:48.656Z,7.60
2018-07-12T00:14:21.311Z,7.67
2018-07-12T00:14:53.874Z,7.53
2018-07-12T00:15:26.420Z,7.62
2018-07-12T00:15:58.967Z,7.40
2018-07-12T00:16:31.514Z,6.83
2018-07-12T00:17:04.142Z,6.87
2018-07-12T00:17:36.914Z,7.75
2018-07-12T00:18:09.607Z,7.70
2018-07-12T00:18:42.587Z,7.05
2018-07-12T00:19:15.531Z,6.78
2018-07-12T00:19:48.431Z,7.55
2018-07-12T00:20:20.990Z,7.22
2018-07-12T00:20:53.850Z,7.30
2018-07-12T00:21:26.423Z,7.75
2018-07-12T00:21:59.077Z,6.75
2018-07-12T00:22:31.641Z,6.70
2018-07-12T00:23:04.525Z,7.55
2018-07-12T00:23:37.399Z,7.55
2018-07-12T00:24:10.165Z,6.53
2018-07-12T00:24:43.003Z,6.75
2018-07-12T00:25:15.888Z,6.90
2018-07-12T00:25:48.430Z,6.30
2018-07-12T00:26:21.004Z,6.97
2018-07-12T00:26:53.558Z,8.20
2018-07-12T00:27:26.451Z,7.70
2018-07-12T00:27:59.324Z,6.90
2018-07-12T00:28:31.875Z,6.87
2018-07-12T00:29:04.759Z,6.03
2018-07-12T00:29:37.341Z,7.40
2018-07-12T00:30:10.181Z,7.12
2018-07-12T00:30:42.710Z,7.50
2018-07-12T00:31:15.334Z,6.90
2018-07-12T00:31:48.187Z,6.95
2018-07-12T00:32:20.850Z,6.97
2018-07-12T00:32:53.615Z,6.58
2018-07-12T00:33:26.160Z,7.47
2018-07-12T00:33:58.727Z,7.05
2018-07-12T00:34:31.620Z,7.05
2018-07-12T00:35:04.273Z,8.20
2018-07-12T00:35:37.037Z,7.25
2018-07-12T00:36:09.699Z,6.70
2018-07-12T00:36:42.270Z,6.62
2018-07-12T00:37:14.844Z,7.92
2018-07-12T00:37:47.610Z,6.70
2018-07-12T00:38:20.475Z,7.37
2018-07-12T00:38:53.065Z,8.03
2018-07-12T00:39:25.604Z,7.37
2018-07-12T00:39:58.173Z,6.35
2018-07-12T00:40:30.857Z,7.62
2018-07-12T00:41:03.609Z,6.50
2018-07-12T00:41:36.481Z,7.45
2018-07-12T00:42:09.354Z,6.67
2018-07-12T00:42:41.939Z,5.83
2018-07-12T00:43:14.479Z,6.75
2018-07-12T00:43:47.114Z,6.47
2018-07-12T00:44:19.724Z,6.65
2018-07-12T00:44:52.466Z,6.17
2018-07-12T00:45:25.019Z,6.17
2018-07-12T00:45:57.935Z,6.17
2018-07-12T00:46:30.475Z,6.83
2018-07-12T00:47:03.364Z,6.95
2018-07-12T00:47:36.223Z,5.67
2018-07-12T00:48:08.778Z,6.62
2018-07-12T00:48:41.488Z,6.17
2018-07-12T00:49:14.524Z,6.95
2018-07-12T00:49:47.239Z,6.53
2018-07-12T00:50:19.952Z,6.08
2018-07-12T00:50:52.519Z,6.87
2018-07-12T00:51:25.403Z,6.55
2018-07-12T00:51:57.950Z,6.05
2018-07-12T00:52:30.540Z,6.40
2018-07-12T00:53:03.096Z,6.00
2018-07-12T00:53:35.762Z,6.80
2018-07-12T00:54:08.536Z,6.60
2018-07-12T00:54:41.721Z,6.37
2018-07-12T00:55:14.582Z,6.03
2018-07-12T00:55:47.587Z,7.17
2018-07-12T00:56:20.431Z,6.83
2018-07-12T00:56:52.992Z,6.17
2018-07-12T00:57:25.544Z,6.20
2018-07-12T00:57:58.327Z,6.62
2018-07-12T00:58:30.988Z,6.35
2018-07-12T00:59:03.752Z,6.37
2018-07-12T00:59:36.631Z,6.60
2018-07-12T01:00:09.505Z,6.03
2018-07-12T01:00:42.361Z,6.53
2018-07-12T01:01:15.050Z,6.97
2018-07-12T01:01:47.863Z,6.35
2018-07-12T01:02:20.384Z,6.67
2018-07-12T01:02:53.055Z,7.12
2018-07-12T01:03:25.592Z,6.12
2018-07-12T01:03:58.162Z,5.97
2018-07-12T01:04:30.715Z,6.95
2018-07-12T01:05:03.491Z,6.47
2018-07-12T01:05:36.487Z,6.70
2018-07-12T01:06:09.037Z,6.42
2018-07-12T01:06:41.802Z,6.15
2018-07-12T01:07:14.504Z,6.55
2018-07-12T01:07:47.560Z,5.90
2018-07-12T01:08:20.095Z,6.05
2018-07-12T01:08:52.774Z,6.62
2018-07-12T01:09:25.356Z,5.67
2018-07-12T01:09:57.898Z,5.90
2018-07-12T01:10:30.672Z,6.50
2018-07-12T01:11:03.338Z,6.37
2018-07-12T01:11:36.116Z,6.60
2018-07-12T01:12:08.662Z,6.47
2018-07-12T01:12:41.199Z,6.67
2018-07-12T01:13:14.738Z,6.35
2018-07-12T01:13:47.279Z,6.75
2018-07-12T01:14:20.146Z,6.78
2018-07-12T01:14:53.018Z,7.00
2018-07-12T01:15:25.566Z,7.35
2018-07-12T01:15:58.147Z,6.58
2018-07-12T01:16:31.027Z,7.92
2018-07-12T01:17:03.575Z,7.05
2018-07-12T01:17:36.464Z,6.50
2018-07-12T01:18:09.162Z,6.03
2018-07-12T01:18:41.739Z,6.80
2018-07-12T01:19:14.547Z,6.55
2018-07-12T01:19:47.133Z,6.40
2018-07-12T01:20:19.908Z,6.17
2018-07-12T01:20:52.749Z,5.92
2018-07-12T01:21:25.630Z,6.22
2018-07-12T01:21:58.411Z,5.90
2018-07-12T01:22:31.173Z,6.67
2018-07-12T01:23:03.954Z,6.85
2018-07-12T01:23:36.605Z,6.22
2018-07-12T01:24:09.412Z,5.75
2018-07-12T01:24:41.975Z,6.10
2018-07-12T01:25:14.829Z,6.33
2018-07-12T01:25:47.374Z,6.40
2018-07-12T01:26:19.941Z,6.12
2018-07-12T01:26:52.828Z,6.33
2018-07-12T01:27:25.459Z,6.22
2018-07-12T01:27:58.043Z,5.25
2018-07-12T01:28:30.636Z,6.28
2018-07-12T01:29:03.190Z,5.90
2018-07-12T01:29:35.970Z,5.47
2018-07-12T01:30:08.532Z,5.90
2018-07-12T01:30:41.369Z,6.58
2018-07-12T01:31:14.244Z,5.87
2018-07-12T01:31:47.130Z,5.92
2018-07-12T01:32:19.674Z,5.90
2018-07-12T01:32:52.210Z,6.15
2018-07-12T01:33:24.807Z,5.75
2018-07-12T01:33:57.508Z,5.75
2018-07-12T01:34:30.371Z,5.75
2018-07-12T01:35:02.945Z,6.78
2018-07-12T01:35:35.994Z,5.92
2018-07-12T01:36:08.663Z,5.83
2018-07-12T01:36:41.241Z,6.10
2018-07-12T01:37:13.800Z,6.10
2018-07-12T01:37:46.363Z,6.37
2018-07-12T01:38:18.930Z,5.87
2018-07-12T01:38:51.481Z,6.25
2018-07-12T01:39:24.064Z,5.53
2018-07-12T01:39:56.829Z,6.70
2018-07-12T01:40:29.387Z,5.45
2018-07-12T01:41:02.253Z,5.85
2018-07-12T01:41:34.787Z,5.80
2018-07-12T01:42:07.708Z,6.12
2018-07-12T01:42:40.276Z,6.00
2018-07-12T01:43:13.128Z,5.80
2018-07-12T01:43:45.796Z,5.90
2018-07-12T01:44:18.342Z,6.37
2018-07-12T01:44:51.115Z,5.92
2018-07-12T01:45:23.986Z,5.55
2018-07-12T01:45:56.562Z,5.47
2018-07-12T01:46:29.101Z,6.00
2018-07-12T01:47:01.797Z,6.40
2018-07-12T01:47:34.375Z,6.42
2018-07-12T01:48:07.124Z,6.00
2018-07-12T01:48:39.999Z,6.62
2018-07-12T01:49:12.671Z,6.03
2018-07-12T01:49:45.227Z,5.28
2018-07-12T01:50:17.895Z,6.05
2018-07-12T01:50:50.438Z,6.15
2018-07-12T01:51:23.218Z,7.20
2018-07-12T01:51:55.976Z,6.58
2018-07-12T01:52:28.552Z,5.70
2018-07-12T01:53:01.223Z,6.10
2018-07-12T01:53:33.803Z,6.10
2018-07-12T01:54:06.355Z,5.53
2018-07-12T01:54:38.943Z,5.67
2018-07-12T01:55:11.999Z,5.72
2018-07-12T01:55:44.563Z,6.00
2018-07-12T01:56:17.124Z,7.22
2018-07-12T01:56:49.799Z,5.92
2018-07-12T01:57:22.424Z,5.97
2018-07-12T01:57:55.122Z,7.22
2018-07-12T01:58:28.002Z,6.58
2018-07-12T01:59:00.564Z,6.55
2018-07-12T01:59:33.122Z,6.65
2018-07-12T02:00:05.991Z,5.70
2018-07-12T02:00:39.350Z,6.28
2018-07-12T02:01:12.039Z,5.75
2018-07-12T02:01:44.708Z,6.55
2018-07-12T02:02:17.294Z,5.75
2018-07-12T02:02:49.839Z,6.40
2018-07-12T02:03:22.603Z,7.17
2018-07-12T02:03:55.471Z,5.55
2018-07-12T02:04:28.047Z,6.65
2018-07-12T02:05:00.598Z,6.67
2018-07-12T02:05:33.396Z,6.80
2018-07-12T02:06:06.168Z,6.33
2018-07-12T02:06:38.899Z,6.33
2018-07-12T02:07:11.587Z,7.33
2018-07-12T02:07:44.474Z,5.92
2018-07-12T02:08:17.515Z,6.35
2018-07-12T02:08:50.395Z,6.65
2018-07-12T02:09:22.950Z,6.83
2018-07-12T02:09:55.647Z,6.20
2018-07-12T02:10:29.028Z,6.95
2018-07-12T02:11:01.563Z,6.15
2018-07-12T02:11:34.436Z,6.30
2018-07-12T02:12:06.998Z,6.60
2018-07-12T02:12:39.559Z,6.80
2018-07-12T02:13:12.248Z,7.42
2018-07-12T02:13:44.775Z,6.08
2018-07-12T02:14:17.338Z,7.10
2018-07-12T02:14:49.980Z,7.42
2018-07-12T02:15:22.795Z,6.72
2018-07-12T02:15:56.153Z,6.25
2018-07-12T02:16:29.041Z,6.35
2018-07-12T02:17:01.639Z,6.62
2018-07-12T02:17:34.495Z,6.05
2018-07-12T02:18:07.044Z,6.20
2018-07-12T02:18:39.735Z,6.37
2018-07-12T02:19:12.815Z,6.70
2018-07-12T02:19:45.394Z,6.00
2018-07-12T02:20:18.011Z,6.28
2018-07-12T02:20:50.795Z,7.25
2018-07-12T02:21:23.444Z,6.33
2018-07-12T02:21:56.220Z,6.40
2018-07-12T02:22:28.782Z,6.78
2018-07-12T02:23:01.343Z,7.00
2018-07-12T02:23:34.251Z,7.33
2018-07-12T02:24:07.103Z,6.72
2018-07-12T02:24:39.797Z,6.35
2018-07-12T02:25:12.343Z,7.22
2018-07-12T02:25:45.177Z,7.10
2018-07-12T02:26:17.789Z,7.28
2018-07-12T02:26:50.556Z,7.25
2018-07-12T02:27:23.106Z,7.40
2018-07-12T02:27:55.666Z,7.15
2018-07-12T02:28:28.233Z,6.30
2018-07-12T02:29:00.791Z,6.85
2018-07-12T02:29:33.336Z,7.80
2018-07-12T02:30:05.923Z,7.30
2018-07-12T02:30:38.482Z,7.87
2018-07-12T02:31:11.050Z,7.12
2018-07-12T02:31:43.583Z,7.20
2018-07-12T02:32:16.185Z,7.90
2018-07-12T02:32:48.732Z,7.72
2018-07-12T02:33:21.278Z,7.37
2018-07-12T02:33:53.854Z,7.70
2018-07-12T02:34:26.387Z,7.20
2018-07-12T02:34:59.047Z,7.33
2018-07-12T02:35:31.573Z,7.60
2018-07-12T02:36:04.144Z,7.40
2018-07-12T02:36:36.680Z,7.00
2018-07-12T02:37:09.251Z,8.48
2018-07-12T02:37:41.828Z,7.65
2018-07-12T02:38:14.389Z,7.35
2018-07-12T02:38:46.941Z,8.83
2018-07-12T02:39:19.491Z,8.05
2018-07-12T02:39:52.059Z,7.75
2018-07-12T02:40:24.606Z,8.38
2018-07-12T02:40:57.138Z,7.95
2018-07-12T02:41:29.710Z,8.65
2018-07-12T02:42:02.265Z,8.25
2018-07-12T02:42:34.834Z,7.40
2018-07-12T02:43:07.400Z,8.80
2018-07-12T02:43:40.018Z,8.03
2018-07-12T02:44:12.565Z,8.33
2018-07-12T02:44:45.111Z,8.00
2018-07-12T02:45:17.694Z,7.50
2018-07-12T02:45:50.257Z,8.10
2018-07-12T02:46:22.826Z,9.40
2018-07-12T02:46:55.402Z,8.70
2018-07-12T02:47:27.968Z,9.95
2018-07-12T02:48:00.533Z,9.85
2018-07-12T02:48:33.076Z,8.70
2018-07-12T02:49:05.619Z,9.23
2018-07-12T02:49:38.234Z,8.65
2018-07-12T02:50:10.791Z,7.80
2018-07-12T02:50:43.488Z,8.98
2018-07-12T02:51:16.056Z,8.60
2018-07-12T02:51:48.714Z,8.15
2018-07-12T02:52:21.259Z,8.25
2018-07-12T02:52:53.799Z,8.95
2018-07-12T02:53:26.491Z,8.03
2018-07-12T02:53:59.023Z,8.63
2018-07-12T02:54:31.608Z,8.80
2018-07-12T02:55:04.203Z,7.90
2018-07-12T02:55:36.767Z,8.08
2018-07-12T02:56:09.390Z,7.78
2018-07-12T02:56:42.187Z,8.40
2018-07-12T02:57:14.724Z,8.13
2018-07-12T02:57:47.313Z,7.85
2018-07-12T02:58:19.984Z,8.35
2018-07-12T02:58:52.570Z,7.17
2018-07-12T02:59:25.307Z,8.00
2018-07-12T02:59:57.891Z,7.80
2018-07-12T03:00:30.452Z,7.65
2018-07-12T03:01:03.021Z,7.80
2018-07-12T03:01:35.687Z,8.15
2018-07-12T03:02:08.245Z,8.45
2018-07-12T03:02:40.995Z,7.58
2018-07-12T03:03:13.543Z,8.10
2018-07-12T03:03:46.082Z,7.05
2018-07-12T03:04:18.710Z,8.08
2018-07-12T03:04:51.291Z,7.67
2018-07-12T03:05:23.847Z,8.90
2018-07-12T03:05:56.394Z,7.85
2018-07-12T03:06:28.955Z,7.22
2018-07-12T03:07:01.526Z,7.05
2018-07-12T03:07:34.125Z,8.50
2018-07-12T03:08:06.752Z,8.33
2018-07-12T03:08:39.312Z,8.33
2018-07-12T03:09:12.083Z,7.50
2018-07-12T03:09:44.615Z,6.90
2018-07-12T03:10:17.530Z,8.83
2018-07-12T03:10:50.127Z,8.65
2018-07-12T03:11:22.693Z,7.92
2018-07-12T03:11:55.328Z,7.30
2018-07-12T03:12:28.219Z,7.17
2018-07-12T03:13:01.314Z,7.90
2018-07-12T03:13:34.254Z,8.48
2018-07-12T03:14:07.238Z,8.70
2018-07-12T03:14:39.927Z,8.13
2018-07-12T03:15:12.480Z,8.20
2018-07-12T03:15:45.465Z,9.25
2018-07-12T03:16:18.171Z,9.00
2018-07-12T03:16:50.804Z,8.45
2018-07-12T03:17:23.459Z,8.20
2018-07-12T03:17:57.364Z,8.08
2018-07-12T03:18:30.189Z,7.75
2018-07-12T03:19:02.959Z,7.85
2018-07-12T03:19:35.985Z,8.00
2018-07-12T03:20:08.581Z,7.92
2018-07-12T03:20:41.123Z,7.92
2018-07-12T03:21:13.663Z,7.95
2018-07-12T03:21:46.216Z,7.80
2018-07-12T03:22:18.818Z,7.72
2018-07-12T03:22:51.409Z,7.80
2018-07-12T03:23:23.992Z,7.72
2018-07-12T03:23:56.560Z,7.85
2018-07-12T03:24:29.119Z,7.80
2018-07-12T03:25:01.664Z,7.70
2018-07-12T03:25:34.263Z,7.30
2018-07-12T03:26:06.790Z,7.35
2018-07-12T03:26:39.334Z,7.72
2018-07-12T03:27:11.911Z,8.10
2018-07-12T03:27:44.480Z,8.85
2018-07-12T03:28:17.046Z,8.08
2018-07-12T03:28:49.972Z,6.37
2018-07-12T03:29:22.526Z,9.85
2018-07-12T03:29:55.067Z,7.78
2018-07-12T03:30:27.609Z,7.58
2018-07-12T03:31:00.172Z,8.35
2018-07-12T03:31:32.732Z,8.25
2018-07-12T03:32:05.302Z,8.50
2018-07-12T03:32:37.867Z,7.47
2018-07-12T03:33:10.416Z,8.05
2018-07-12T03:33:42.976Z,6.95
2018-07-12T03:34:15.531Z,7.62
2018-07-12T03:34:48.094Z,7.00
2018-07-12T03:35:20.645Z,7.85
2018-07-12T03:35:53.368Z,7.67
2018-07-12T03:36:25.932Z,7.10
2018-07-12T03:36:58.567Z,7.42
2018-07-12T03:37:31.118Z,8.30
2018-07-12T03:38:03.721Z,7.67
2018-07-12T03:38:36.261Z,6.78
2018-07-12T03:39:08.836Z,7.08
2018-07-12T03:39:41.499Z,6.50
2018-07-12T03:40:14.093Z,7.35
2018-07-12T03:40:46.667Z,6.55
2018-07-12T03:41:19.216Z,6.60
2018-07-12T03:41:51.768Z,6.60
2018-07-12T03:42:24.327Z,6.22
2018-07-12T03:42:56.918Z,6.58
2018-07-12T03:43:29.467Z,6.58
2018-07-12T03:44:02.023Z,6.25
2018-07-12T03:44:34.560Z,7.15
2018-07-12T03:45:07.111Z,6.97
2018-07-12T03:45:39.724Z,6.83
2018-07-12T03:46:12.272Z,6.87
2018-07-12T03:46:44.815Z,7.08
2018-07-12T03:47:17.364Z,7.20
2018-07-12T03:47:49.937Z,6.90
2018-07-12T03:48:22.476Z,7.40
2018-07-12T03:48:55.066Z,6.67
2018-07-12T03:49:27.720Z,7.15
2018-07-12T03:50:00.266Z,5.97
2018-07-12T03:50:32.826Z,6.50
2018-07-12T03:51:05.395Z,7.03
2018-07-12T03:51:37.930Z,6.10
2018-07-12T03:52:10.473Z,6.62
2018-07-12T03:52:43.084Z,6.30
2018-07-12T03:53:15.665Z,7.17
2018-07-12T03:53:48.227Z,6.45
2018-07-12T03:54:20.779Z,6.80
2018-07-12T03:54:53.354Z,6.87
2018-07-12T03:55:25.911Z,6.20
2018-07-12T03:55:58.463Z,6.35
2018-07-12T03:56:31.050Z,6.50
2018-07-12T03:57:03.656Z,6.65
2018-07-12T03:57:36.227Z,6.05
2018-07-12T03:58:08.825Z,6.22
2018-07-12T03:58:41.345Z,5.62
2018-07-12T03:59:13.941Z,6.35
2018-07-12T03:59:46.489Z,6.12
2018-07-12T04:00:19.057Z,6.35
2018-07-12T04:00:51.607Z,6.50
2018-07-12T04:01:24.188Z,5.90
2018-07-12T04:01:56.738Z,6.15
2018-07-12T04:02:29.555Z,6.03
2018-07-12T04:03:02.098Z,5.25
2018-07-12T04:03:34.730Z,5.10
2018-07-12T04:04:07.490Z,5.53
2018-07-12T04:04:40.049Z,5.70
2018-07-12T04:05:12.595Z,6.08
2018-07-12T04:05:45.130Z,5.40
2018-07-12T04:06:17.694Z,5.85
2018-07-12T04:06:50.261Z,5.05
2018-07-12T04:07:23.036Z,5.92
2018-07-12T04:07:55.595Z,5.28
2018-07-12T04:08:28.155Z,5.58
2018-07-12T04:09:00.705Z,5.05
2018-07-12T04:09:33.287Z,5.40
2018-07-12T04:10:05.848Z,5.35
2018-07-12T04:10:38.403Z,5.33
2018-07-12T04:11:11.016Z,5.55
2018-07-12T04:11:43.686Z,5.42
2018-07-12T04:12:16.252Z,6.12
2018-07-12T04:12:48.826Z,6.37
2018-07-12T04:13:21.384Z,5.15
2018-07-12T04:13:53.929Z,5.22
2018-07-12T04:14:26.470Z,5.62
2018-07-12T04:14:59.023Z,6.25
2018-07-12T04:15:31.586Z,5.47
2018-07-12T04:16:04.235Z,4.72
2018-07-12T04:16:36.776Z,4.62
2018-07-12T04:17:09.419Z,4.83
2018-07-12T04:17:41.963Z,4.58
2018-07-12T04:18:14.523Z,4.62
2018-07-12T04:18:47.093Z,4.55
2018-07-12T04:19:19.669Z,4.67
2018-07-12T04:19:52.239Z,4.87
2018-07-12T04:20:25.157Z,4.50
2018-07-12T04:20:57.734Z,4.87
2018-07-12T04:21:30.293Z,4.40
2018-07-12T04:22:02.877Z,3.90
2018-07-12T04:22:36.240Z,5.95
2018-07-12T04:23:08.900Z,4.95
2018-07-12T04:23:41.478Z,5.70
2018-07-12T04:24:14.195Z,4.60
2018-07-12T04:24:47.003Z,4.47
2018-07-12T04:25:21.554Z,4.58
2018-07-12T04:25:54.151Z,4.65
2018-07-12T04:26:27.048Z,4.55
2018-07-12T04:26:59.619Z,4.50
2018-07-12T04:27:32.173Z,3.72
2018-07-12T04:28:04.745Z,4.12
2018-07-12T04:28:37.302Z,4.40
2018-07-12T04:29:10.064Z,4.47
2018-07-12T04:29:42.627Z,4.30
2018-07-12T04:30:15.307Z,4.45
2018-07-12T04:30:47.869Z,4.40
2018-07-12T04:31:20.443Z,4.37
2018-07-12T04:31:53.056Z,4.70
2018-07-12T04:32:25.680Z,4.58
2018-07-12T04:32:58.275Z,4.20
2018-07-12T04:33:30.996Z,4.97
2018-07-12T04:34:03.555Z,4.90
2018-07-12T04:34:36.187Z,5.45
2018-07-12T04:35:12.039Z,4.72
2018-07-12T04:35:46.170Z,4.90
2018-07-12T04:36:18.911Z,5.70
2018-07-12T04:36:51.841Z,5.90
2018-07-12T04:37:24.509Z,5.97
2018-07-12T04:37:57.262Z,5.60
2018-07-12T04:38:29.819Z,5.92
2018-07-12T04:39:02.779Z,5.78
2018-07-12T04:39:35.451Z,5.15
2018-07-12T04:40:08.009Z,5.10
2018-07-12T04:40:40.563Z,5.17
2018-07-12T04:41:13.129Z,4.67
2018-07-12T04:41:45.908Z,4.40
2018-07-12T04:42:18.501Z,4.58
2018-07-12T04:42:51.304Z,5.12
2018-07-12T04:43:23.855Z,5.08
2018-07-12T04:43:56.444Z,6.15
2018-07-12T04:44:29.018Z,5.35
2018-07-12T04:45:01.583Z,4.95
2018-07-12T04:45:34.192Z,5.17
2018-07-12T04:46:06.753Z,5.12
2018-07-12T04:46:39.485Z,5.15
2018-07-12T04:47:12.064Z,5.03
2018-07-12T04:47:44.649Z,5.40
2018-07-12T04:48:17.251Z,4.95
2018-07-12T04:48:49.883Z,5.70
2018-07-12T04:49:22.647Z,5.05
2018-07-12T04:49:55.190Z,5.55
2018-07-12T04:50:27.735Z,5.15
2018-07-12T04:51:00.293Z,5.30
2018-07-12T04:51:32.854Z,5.20
2018-07-12T04:52:05.403Z,5.75
2018-07-12T04:52:38.036Z,5.70
2018-07-12T04:53:10.587Z,4.53
2018-07-12T04:53:43.151Z,5.78
2018-07-12T04:54:15.710Z,5.33
2018-07-12T04:54:48.786Z,4.35
2018-07-12T04:55:21.416Z,4.90
2018-07-12T04:55:54.000Z,5.22
2018-07-12T04:56:26.567Z,5.67
2018-07-12T04:56:59.125Z,5.30
2018-07-12T04:57:31.719Z,5.22
2018-07-12T04:58:04.366Z,5.50
2018-07-12T04:58:36.946Z,5.10
2018-07-12T04:59:09.535Z,5.50
2018-07-12T04:59:42.128Z,5.47
2018-07-12T05:00:14.955Z,11.35
2018-07-12T05:00:47.499Z,7.17
2018-07-12T05:01:20.683Z,6.37
2018-07-12T05:01:53.897Z,6.62
2018-07-12T05:02:26.468Z,5.58
2018-07-12T05:02:59.173Z,4.83
2018-07-12T05:03:31.875Z,5.10
2018-07-12T05:04:04.475Z,4.95
2018-07-12T05:04:37.043Z,5.10
2018-07-12T05:05:09.891Z,4.70
2018-07-12T05:05:42.445Z,5.65
2018-07-12T05:06:15.006Z,5.55
2018-07-12T05:06:48.090Z,5.25
2018-07-12T05:07:20.698Z,5.62
2018-07-12T05:07:53.244Z,5.90
2018-07-12T05:08:25.857Z,5.75
2018-07-12T05:08:58.588Z,5.55
2018-07-12T05:09:31.164Z,5.35
2018-07-12T05:10:03.747Z,5.55
2018-07-12T05:10:36.311Z,5.78
2018-07-12T05:11:08.951Z,5.40
2018-07-12T05:11:41.534Z,5.70
2018-07-12T05:12:14.476Z,6.03
2018-07-12T05:12:47.435Z,6.05
2018-07-12T05:13:20.044Z,6.20
2018-07-12T05:13:53.398Z,6.60
2018-07-12T05:14:26.012Z,6.62
2018-07-12T05:14:58.574Z,6.47
2018-07-12T05:15:31.188Z,6.30
2018-07-12T05:16:03.749Z,6.10
2018-07-12T05:16:36.310Z,6.00
2018-07-12T05:17:08.895Z,5.95
2018-07-12T05:17:41.517Z,5.83
2018-07-12T05:18:14.811Z,6.50
2018-07-12T05:18:47.433Z,5.90
2018-07-12T05:19:19.998Z,6.78
2018-07-12T05:19:52.586Z,6.87
2018-07-12T05:20:25.182Z,7.25
2018-07-12T05:20:58.062Z,5.78
2018-07-12T05:21:30.607Z,6.50
2018-07-12T05:22:03.364Z,6.95
2018-07-12T05:22:35.851Z,7.25
2018-07-12T05:23:08.646Z,6.90
2018-07-12T05:23:41.273Z,7.28
2018-07-12T05:24:13.831Z,6.90
2018-07-12T05:24:46.402Z,6.53
2018-07-12T05:25:18.961Z,7.10
2018-07-12T05:25:51.525Z,7.53
2018-07-12T05:26:24.092Z,7.70
2018-07-12T05:26:56.652Z,8.10
2018-07-12T05:27:29.212Z,7.35
2018-07-12T05:28:01.781Z,8.10
2018-07-12T05:28:34.454Z,7.25
2018-07-12T05:29:07.146Z,7.08
2018-07-12T05:29:39.725Z,7.37
2018-07-12T05:30:12.290Z,7.87
2018-07-12T05:30:44.946Z,7.97
2018-07-12T05:31:17.784Z,7.75
2018-07-12T05:31:51.216Z,8.30
2018-07-12T05:32:23.885Z,7.28
2018-07-12T05:32:56.541Z,7.53
2018-07-12T05:33:29.250Z,8.13
2018-07-12T05:34:01.859Z,7.55
2018-07-12T05:34:34.424Z,8.33
2018-07-12T05:35:07.216Z,7.85
2018-07-12T05:35:40.443Z,7.60
2018-07-12T05:36:21.034Z,8.45
2018-07-12T05:36:56.659Z,8.08
2018-07-12T05:37:30.174Z,8.43
2018-07-12T05:38:03.555Z,8.20
2018-07-12T05:38:36.882Z,8.40
2018-07-12T05:39:10.060Z,8.75
2018-07-12T05:39:44.056Z,9.10
2018-07-12T05:40:17.180Z,9.03
2018-07-12T05:40:50.723Z,8.95
2018-07-12T05:41:23.888Z,8.85
2018-07-12T05:41:57.140Z,9.40
2018-07-12T05:42:30.396Z,8.73
2018-07-12T05:43:03.673Z,9.10
2018-07-12T05:43:36.852Z,10.78
2018-07-12T05:44:09.977Z,10.68
2018-07-12T05:44:43.695Z,9.90
2018-07-12T05:45:17.200Z,9.55
2018-07-12T05:45:50.831Z,9.98
2018-07-12T05:46:24.005Z,9.13
2018-07-12T05:46:57.190Z,10.70
2018-07-12T05:47:30.347Z,10.05
2018-07-12T05:48:03.516Z,9.85
2018-07-12T05:48:36.704Z,10.15
2018-07-12T05:49:10.855Z,10.15
2018-07-12T05:49:44.069Z,9.90
2018-07-12T05:50:17.888Z,9.58
2018-07-12T05:50:51.039Z,9.43
2018-07-12T05:51:24.451Z,9.58
2018-07-12T05:51:58.557Z,10.18
2018-07-12T05:52:32.824Z,9.68
2018-07-12T05:53:06.323Z,11.15
2018-07-12T05:53:39.708Z,9.60
2018-07-12T05:54:12.901Z,9.58
2018-07-12T05:54:45.970Z,10.28
2018-07-12T05:55:19.372Z,9.83
2018-07-12T05:55:53.030Z,9.60
2018-07-12T05:56:26.260Z,9.05
2018-07-12T05:56:59.518Z,9.05
2018-07-12T05:57:32.693Z,9.35
2018-07-12T05:58:05.861Z,8.50
2018-07-12T05:58:45.545Z,9.18
2018-07-12T05:59:19.050Z,8.13
2018-07-12T05:59:52.226Z,8.30
2018-07-12T06:00:25.447Z,8.10
2018-07-12T06:00:58.585Z,7.65
2018-07-12T06:01:37.408Z,7.72
2018-07-12T06:02:16.883Z,8.48
2018-07-12T06:02:50.196Z,7.85
2018-07-12T06:03:23.354Z,7.25
2018-07-12T06:03:56.476Z,7.08
2018-07-12T06:04:29.575Z,7.28
2018-07-12T06:05:04.181Z,7.62
2018-07-12T06:05:37.575Z,7.10
2018-07-12T06:06:16.089Z,8.08
2018-07-12T06:06:49.352Z,6.78
2018-07-12T06:07:27.963Z,7.60
2018-07-12T06:08:01.232Z,7.87
2018-07-12T06:08:34.456Z,7.90
2018-07-12T06:09:09.028Z,7.12
2018-07-12T06:09:42.515Z,7.92
2018-07-12T06:10:15.624Z,7.92
2018-07-12T06:10:49.132Z,9.23
2018-07-12T06:11:22.196Z,8.05
2018-07-12T06:11:55.407Z,8.85
2018-07-12T06:12:28.592Z,8.63
2018-07-12T06:13:02.095Z,9.40
2018-07-12T06:13:35.256Z,8.63
2018-07-12T06:14:08.878Z,9.18
2018-07-12T06:14:42.036Z,9.45
2018-07-12T06:15:15.225Z,10.00
2018-07-12T06:15:48.643Z,10.38
2018-07-12T06:16:21.874Z,10.10
2018-07-12T06:16:55.131Z,9.43
2018-07-12T06:17:28.179Z,10.13
2018-07-12T06:18:01.457Z,11.85
2018-07-12T06:18:34.706Z,11.15
2018-07-12T06:19:08.186Z,10.10
2018-07-12T06:19:41.451Z,10.48
2018-07-12T06:20:14.558Z,10.43
2018-07-12T06:20:48.403Z,9.05
2018-07-12T06:21:21.615Z,7.75
2018-07-12T06:21:55.399Z,12.25
2018-07-12T06:22:28.496Z,11.97
2018-07-12T06:23:01.869Z,12.05
2018-07-12T06:23:34.971Z,10.35
2018-07-12T06:24:08.046Z,9.13
2018-07-12T06:24:41.313Z,8.43
2018-07-12T06:25:14.584Z,8.05
2018-07-12T06:25:47.697Z,9.90
2018-07-12T06:26:20.816Z,8.38
2018-07-12T06:26:54.680Z,8.93
2018-07-12T06:27:27.787Z,10.85
2018-07-12T06:28:00.962Z,10.20
2018-07-12T06:28:34.155Z,10.18
2018-07-12T06:29:07.390Z,10.45
2018-07-12T06:29:40.507Z,8.25
2018-07-12T06:30:13.754Z,9.85
2018-07-12T06:30:47.028Z,9.45
2018-07-12T06:31:20.093Z,9.95
2018-07-12T06:31:53.616Z,9.55
2018-07-12T06:32:26.807Z,11.43
2018-07-12T06:32:59.870Z,11.40
2018-07-12T06:33:33.099Z,10.50
2018-07-12T06:34:06.276Z,10.00
2018-07-12T06:34:39.858Z,10.95
2018-07-12T06:35:12.935Z,11.50
2018-07-12T06:35:46.119Z,11.10
2018-07-12T06:36:19.286Z,10.58
2018-07-12T06:36:52.368Z,11.70
2018-07-12T06:37:25.613Z,10.82
2018-07-12T06:37:58.802Z,10.38
2018-07-12T06:38:31.981Z,10.48
2018-07-12T06:39:06.707Z,11.83
2018-07-12T06:39:39.896Z,11.57
2018-07-12T06:40:13.656Z,10.95
2018-07-12T06:40:47.066Z,12.78
2018-07-12T06:41:20.343Z,12.78
2018-07-12T06:41:53.916Z,11.60
2018-07-12T06:42:27.081Z,11.75
2018-07-12T06:43:06.520Z,11.48
2018-07-12T06:43:39.796Z,12.03
2018-07-12T06:44:12.900Z,12.25
2018-07-12T06:44:45.971Z,12.47
2018-07-12T06:45:19.454Z,12.88
2018-07-12T06:45:52.835Z,12.47
2018-07-12T06:46:27.041Z,13.22
2018-07-12T06:47:00.115Z,12.60
2018-07-12T06:47:33.300Z,12.93
2018-07-12T06:48:06.461Z,11.22
2018-07-12T06:48:39.771Z,11.78
2018-07-12T06:49:13.115Z,11.70
2018-07-12T06:49:46.173Z,11.50
2018-07-12T06:50:19.278Z,11.97
2018-07-12T06:50:52.465Z,12.73
2018-07-12T06:51:25.613Z,12.70
2018-07-12T06:51:58.690Z,11.70
2018-07-12T06:52:32.179Z,11.75
2018-07-12T06:53:05.925Z,11.95
2018-07-12T06:53:40.212Z,11.85
2018-07-12T06:54:14.124Z,10.80
2018-07-12T06:54:47.841Z,11.50
2018-07-12T06:55:20.966Z,10.88
2018-07-12T06:55:54.936Z,11.68
2018-07-12T06:56:28.007Z,10.80
2018-07-12T06:57:01.099Z,11.55
2018-07-12T06:57:34.225Z,11.33
2018-07-12T06:58:07.603Z,12.28
2018-07-12T06:58:40.975Z,12.10
2018-07-12T06:59:14.023Z,11.93
2018-07-12T06:59:47.623Z,12.28
2018-07-12T07:00:20.802Z,10.85
2018-07-12T07:00:53.894Z,10.35
2018-07-12T07:01:27.342Z,12.25
2018-07-12T07:02:00.975Z,11.75
2018-07-12T07:02:34.084Z,12.45
2018-07-12T07:03:07.206Z,11.97
2018-07-12T07:03:40.367Z,11.48
2018-07-12T07:04:13.850Z,12.20
2018-07-12T07:04:47.025Z,11.25
2018-07-12T07:05:20.207Z,11.68
2018-07-12T07:05:53.425Z,9.73
2018-07-12T07:06:26.645Z,9.88
2018-07-12T07:06:59.887Z,9.53
2018-07-12T07:07:33.024Z,9.30
2018-07-12T07:08:06.226Z,9.70
2018-07-12T07:08:39.293Z,10.20
2018-07-12T07:09:12.432Z,10.85
2018-07-12T07:09:45.607Z,10.13
2018-07-12T07:10:19.215Z,8.60
2018-07-12T07:10:52.603Z,9.35
2018-07-12T07:11:25.755Z,10.13
2018-07-12T07:11:59.097Z,9.53
2018-07-12T07:12:32.464Z,9.65
2018-07-12T07:13:05.696Z,9.98
2018-07-12T07:13:39.143Z,9.85
2018-07-12T07:14:12.326Z,10.28
2018-07-12T07:14:45.938Z,10.35
2018-07-12T07:15:21.626Z,10.70
2018-07-12T07:15:54.731Z,10.10